Time;durP1;ratioP1;P1;durP2;ratioP2;P2;SDS_P1;SDS_P2;PMS_P1;PMS_P2;Temp;Humidity;BMP_temperature;BMP_pressure;BME280_temperature;BME280_humidity;BME280_pressure;Samples;Min_cycle;Max_cycle;Signal;HPM_P1;HPM_P2
2023/02/17 00:02:24;;;;;;;87.50;41.40;;;;;;;0.32;86.81;99389.70;221595;1275;24258;-76
2023/02/17 00:07:30;;;;;;;96.80;45.50;;;;;;;0.40;87.33;99380.15;221625;1275;24257;-73
2023/02/17 00:12:33;;;;;;;99.10;44.30;;;;;;;0.47;86.97;99381.16;221598;1278;22550;-74
2023/02/17 00:17:35;;;;;;;95.60;43.30;;;;;;;0.53;86.88;99376.58;221507;1276;23724;-74
2023/02/17 00:22:38;;;;;;;84.70;40.10;;;;;;;0.58;86.86;99377.95;221500;1275;26105;-74
2023/02/17 00:27:40;;;;;;;82.10;40.10;;;;;;;0.62;86.63;99377.83;221564;1275;22590;-74
2023/02/17 00:32:43;;;;;;;83.10;39.80;;;;;;;0.66;86.99;99373.95;221569;1278;22540;-74
2023/02/17 00:37:44;;;;;;;85.60;38.60;;;;;;;0.67;86.66;99372.98;221579;1275;25354;-74
2023/02/17 00:42:47;;;;;;;87.70;40.80;;;;;;;0.68;86.48;99365.30;221580;1275;23510;-74
2023/02/17 00:47:49;;;;;;;80.80;37.30;;;;;;;0.67;86.55;99360.88;221379;1275;22651;-74
2023/02/17 00:52:51;;;;;;;76.10;36.20;;;;;;;0.63;86.10;99360.80;221515;1266;25522;-74
2023/02/17 00:57:53;;;;;;;76.30;35.60;;;;;;;0.57;86.47;99357.41;221553;1266;24232;-72
2023/02/17 01:02:56;;;;;;;79.60;37.30;;;;;;;0.52;86.88;99350.70;221571;1278;25128;-74
2023/02/17 01:07:58;;;;;;;77.90;36.70;;;;;;;0.46;86.71;99349.42;221629;1275;22574;-74
2023/02/17 01:13:01;;;;;;;81.70;37.40;;;;;;;0.40;86.79;99344.09;221622;1266;22548;-74
2023/02/17 01:18:03;;;;;;;77.60;37.50;;;;;;;0.33;86.74;99347.00;221616;1275;22991;-74
2023/02/17 01:23:06;;;;;;;80.30;36.90;;;;;;;0.27;86.91;99340.88;221619;1275;22717;-73
2023/02/17 01:28:20;;;;;;;77.00;39.10;;;;;;;0.22;87.09;99345.91;221702;1273;22527;-74
2023/02/17 01:33:22;;;;;;;76.10;35.90;;;;;;;0.17;86.72;99344.39;221639;1278;198824;-73
2023/02/17 01:38:24;;;;;;;71.80;36.00;;;;;;;0.12;86.82;99336.27;221458;1278;25478;-75
2023/02/17 01:43:26;;;;;;;78.70;36.60;;;;;;;0.07;86.80;99333.98;221497;1278;24112;-74
2023/02/17 01:48:30;;;;;;;70.00;35.10;;;;;;;0.04;87.05;99340.98;221654;1274;25769;-74
2023/02/17 01:53:38;;;;;;;74.90;35.00;;;;;;;0.01;86.74;99342.43;221572;1278;22530;-74
2023/02/17 01:58:45;;;;;;;70.90;35.20;;;;;;;-0.02;87.28;99335.19;221648;1275;24413;-73
2023/02/17 02:03:49;;;;;;;74.30;35.10;;;;;;;-0.04;87.17;99326.30;221505;1273;24292;-74
2023/02/17 02:08:58;;;;;;;68.40;33.10;;;;;;;-0.04;87.57;99328.19;221891;1275;25688;-74
2023/02/17 02:14:06;;;;;;;68.30;35.00;;;;;;;-0.00;87.44;99323.61;221311;1278;23403;-73
2023/02/17 02:19:35;;;;;;;71.40;34.50;;;;;;;0.06;87.53;99319.38;221512;1275;23769;-73
2023/02/17 02:24:57;;;;;;;69.60;35.10;;;;;;;0.13;87.30;99310.05;221573;1269;25357;-74
2023/02/17 02:30:30;;;;;;;72.80;36.50;;;;;;;0.19;87.26;99302.52;221571;1278;22554;-74
2023/02/17 02:35:47;;;;;;;70.80;36.30;;;;;;;0.28;87.46;99295.45;221665;1265;22538;-74
2023/02/17 02:41:19;;;;;;;62.80;33.20;;;;;;;0.36;87.35;99289.81;221491;1277;24882;-74
2023/02/17 02:46:21;;;;;;;66.70;33.50;;;;;;;0.43;87.30;99288.60;221335;1278;24365;-74
2023/02/17 02:51:48;;;;;;;63.40;32.90;;;;;;;0.51;87.15;99296.55;221195;1278;22635;-74
2023/02/17 02:57:03;;;;;;;61.00;30.60;;;;;;;0.58;87.26;99286.49;221667;1275;22650;-73
2023/02/17 03:02:28;;;;;;;59.50;30.50;;;;;;;0.62;87.19;99287.04;221495;1275;22550;-74
2023/02/17 03:07:44;;;;;;;61.30;30.20;;;;;;;0.64;87.34;99288.98;221557;1275;22652;-74
2023/02/17 03:12:47;;;;;;;52.70;28.10;;;;;;;0.65;87.24;99280.77;221480;1278;22598;-74
2023/02/17 03:17:49;;;;;;;60.50;31.70;;;;;;;0.66;87.00;99261.11;221532;1278;22533;-74
2023/02/17 03:22:52;;;;;;;59.00;30.40;;;;;;;0.71;87.00;99264.37;221497;1275;22600;-74
2023/02/17 03:27:54;;;;;;;59.60;30.70;;;;;;;0.73;86.75;99264.08;221416;1273;22539;-74
2023/02/17 03:32:56;;;;;;;60.10;30.40;;;;;;;0.78;87.13;99261.80;221514;1276;22655;-73
2023/02/17 03:37:58;;;;;;;59.90;31.80;;;;;;;0.84;87.15;99264.42;221479;1275;22537;-74
2023/02/17 03:43:07;;;;;;;60.00;31.60;;;;;;;0.93;87.00;99260.77;221609;1278;25287;-74
2023/02/17 03:48:09;;;;;;;54.30;29.90;;;;;;;1.02;87.17;99258.52;221613;1273;25345;-73
2023/02/17 03:53:11;;;;;;;57.60;31.80;;;;;;;1.09;86.82;99249.52;221674;1268;25411;-74
2023/02/17 03:58:13;;;;;;;55.60;31.80;;;;;;;1.16;86.98;99245.52;221552;1275;23991;-74
2023/02/17 04:03:15;;;;;;;57.20;31.70;;;;;;;1.24;86.89;99233.13;221546;1273;25326;-74
2023/02/17 04:08:17;;;;;;;54.60;32.60;;;;;;;1.31;86.54;99235.67;221466;1278;22764;-75
2023/02/17 04:13:19;;;;;;;52.70;30.50;;;;;;;1.35;86.30;99238.98;221527;1276;26401;-74
2023/02/17 04:18:22;;;;;;;62.30;34.00;;;;;;;1.38;86.34;99245.15;221591;1275;22549;-73
2023/02/17 04:23:25;;;;;;;58.50;32.80;;;;;;;1.43;86.76;99241.84;221563;1275;22595;-73
2023/02/17 04:28:27;;;;;;;57.80;31.80;;;;;;;1.48;86.50;99237.88;221434;1278;22550;-74
2023/02/17 04:33:29;;;;;;;57.80;34.00;;;;;;;1.50;86.33;99235.39;221458;1273;25276;-74
2023/02/17 04:38:32;;;;;;;58.40;32.70;;;;;;;1.55;86.42;99237.27;221400;1270;25555;-74
2023/02/17 04:43:34;;;;;;;61.10;33.10;;;;;;;1.59;86.55;99232.77;221606;1278;24206;-73
2023/02/17 04:48:37;;;;;;;57.60;32.70;;;;;;;1.63;86.47;99223.46;221602;1278;25304;-74
2023/02/17 04:53:39;;;;;;;58.50;32.40;;;;;;;1.67;86.51;99221.92;221570;1276;22541;-74
2023/02/17 04:58:41;;;;;;;53.90;29.90;;;;;;;1.71;86.11;99218.48;221597;1278;22505;-74
2023/02/17 05:03:43;;;;;;;56.00;31.40;;;;;;;1.76;86.47;99212.39;221610;1278;25339;-74
2023/02/17 05:08:47;;;;;;;64.20;34.30;;;;;;;1.80;86.42;99214.11;221662;1275;24206;-74
2023/02/17 05:13:49;;;;;;;63.10;33.80;;;;;;;1.83;86.47;99206.61;221591;1276;22537;-74
2023/02/17 05:18:51;;;;;;;59.10;32.20;;;;;;;1.85;86.26;99196.33;221465;1278;25508;-74
2023/02/17 05:23:53;;;;;;;52.40;30.20;;;;;;;1.88;86.37;99190.39;221528;1275;22749;-74
2023/02/17 05:28:56;;;;;;;50.20;29.20;;;;;;;1.91;86.55;99194.64;221693;1278;22534;-73
2023/02/17 05:33:58;;;;;;;56.30;28.80;;;;;;;1.95;86.37;99192.60;221509;1275;22543;-74
2023/02/17 05:39:00;;;;;;;54.50;30.70;;;;;;;2.02;86.39;99201.96;221436;1278;22666;-74
2023/02/17 05:44:02;;;;;;;55.00;31.50;;;;;;;2.07;86.33;99200.25;221579;1276;22537;-74
2023/02/17 05:49:04;;;;;;;54.10;31.30;;;;;;;2.13;86.34;99193.39;221630;1256;22536;-74
2023/02/17 05:54:06;;;;;;;52.70;31.00;;;;;;;2.19;86.35;99193.97;221666;1276;25415;-73
2023/02/17 05:59:09;;;;;;;59.50;31.90;;;;;;;2.24;86.38;99191.47;221481;1275;25208;-74
2023/02/17 06:04:11;;;;;;;53.20;30.90;;;;;;;2.29;86.22;99185.81;221617;1278;25030;-74
2023/02/17 06:09:13;;;;;;;55.60;30.90;;;;;;;2.34;86.07;99174.09;221593;1278;22539;-74
2023/02/17 06:14:15;;;;;;;53.20;31.30;;;;;;;2.40;86.12;99170.30;221566;1275;25242;-74
2023/02/17 06:19:18;;;;;;;57.00;32.40;;;;;;;2.47;86.39;99159.44;221581;1275;25355;-74
2023/02/17 06:24:19;;;;;;;53.70;30.90;;;;;;;2.58;86.27;99155.42;221524;1260;22746;-74
2023/02/17 06:29:21;;;;;;;50.80;30.00;;;;;;;2.69;86.05;99150.48;221500;1275;22537;-74
2023/02/17 06:34:24;;;;;;;55.40;30.70;;;;;;;2.82;86.20;99142.60;221754;1272;22555;-73
2023/02/17 06:39:25;;;;;;;53.60;30.30;;;;;;;2.96;86.11;99142.98;222022;1269;24215;-73
2023/02/17 06:44:28;;;;;;;61.10;30.30;;;;;;;3.10;85.96;99146.40;221916;1272;23044;-73
2023/02/17 06:49:29;;;;;;;53.60;30.30;;;;;;;3.24;85.74;99149.57;221942;1270;25310;-74
2023/02/17 06:54:31;;;;;;;52.50;29.50;;;;;;;3.37;85.69;99145.84;222094;1260;22745;-75
2023/02/17 06:59:33;;;;;;;54.40;28.50;;;;;;;3.49;85.56;99136.41;221917;1256;145891;-74
2023/02/17 07:04:35;;;;;;;57.40;30.50;;;;;;;3.64;85.44;99140.88;222193;1261;138906;-75
2023/02/17 07:09:38;;;;;;;47.80;25.70;;;;;;;3.81;85.38;99142.45;221938;1258;138429;-74
2023/02/17 07:14:40;;;;;;;42.10;26.50;;;;;;;3.99;85.14;99150.83;221890;1260;138513;-75
2023/02/17 07:19:42;;;;;;;42.00;25.50;;;;;;;4.17;85.07;99138.69;222034;1262;26378;-73
2023/02/17 07:24:44;;;;;;;43.00;24.80;;;;;;;4.34;84.58;99143.91;222121;1267;138199;-74
2023/02/17 07:29:46;;;;;;;41.50;24.20;;;;;;;4.47;84.19;99150.94;221991;1273;138579;-74
2023/02/17 07:34:52;;;;;;;40.00;23.90;;;;;;;4.57;84.01;99156.30;222246;1262;138869;-75
2023/02/17 07:39:55;;;;;;;40.00;23.60;;;;;;;4.68;83.99;99143.96;221796;1273;138567;-74
2023/02/17 07:44:58;;;;;;;40.70;24.20;;;;;;;4.77;83.80;99144.48;221885;1264;138534;-75
2023/02/17 07:50:00;;;;;;;40.10;23.20;;;;;;;4.84;83.43;99134.63;222135;1261;23778;-75
2023/02/17 07:55:02;;;;;;;39.20;23.10;;;;;;;4.87;83.19;99135.56;221766;1269;138445;-74
2023/02/17 08:00:06;;;;;;;38.80;22.20;;;;;;;4.90;83.02;99131.96;222007;1259;138354;-74
2023/02/17 08:05:14;;;;;;;38.70;23.50;;;;;;;4.92;82.93;99125.61;222049;1273;138547;-74
2023/02/17 08:16:26;;;;;;;;;;;;;;;;;;;;;
2023/02/17 08:21:37;;;;;;;37.80;23.80;;;;;;;5.00;82.70;99118.98;222144;1254;138756;-74
2023/02/17 08:26:39;;;;;;;40.40;24.10;;;;;;;5.01;82.90;99110.98;222249;1263;138417;-74
2023/02/17 08:31:42;;;;;;;35.50;21.60;;;;;;;5.07;83.05;99107.66;222045;1273;23288;-74
2023/02/17 08:36:44;;;;;;;34.20;22.20;;;;;;;5.13;82.81;99110.17;222022;1273;138894;-74
2023/02/17 08:41:47;;;;;;;36.50;22.20;;;;;;;5.21;82.88;99114.45;221756;1264;138634;-74
2023/02/17 08:46:50;;;;;;;33.40;19.80;;;;;;;5.32;82.94;99116.98;221965;1267;138603;-74
2023/02/17 08:51:53;;;;;;;36.20;21.50;;;;;;;5.44;82.86;99114.20;221861;1264;138409;-75
2023/02/17 08:56:57;;;;;;;34.20;21.20;;;;;;;5.56;82.80;99108.52;222021;1270;138905;-74
2023/02/17 09:02:00;;;;;;;32.30;19.90;;;;;;;5.63;82.59;99106.38;222455;1271;22632;-74
2023/02/17 09:07:02;;;;;;;29.10;18.30;;;;;;;5.67;82.30;99117.35;221927;1270;139204;-74
2023/02/17 09:12:05;;;;;;;29.40;18.60;;;;;;;5.69;82.11;99122.42;222155;1261;139252;-75
2023/02/17 09:17:07;;;;;;;29.80;19.20;;;;;;;5.70;82.13;99123.95;222007;1264;138480;-75
2023/02/17 09:22:09;;;;;;;28.90;19.00;;;;;;;5.70;82.20;99117.94;221866;1264;138481;-74
2023/02/17 09:27:31;;;;;;;29.00;19.10;;;;;;;5.72;82.23;99101.58;222175;1273;138577;-75
2023/02/17 09:32:33;;;;;;;29.30;19.60;;;;;;;5.68;82.35;99100.81;222062;1260;138506;-76
2023/02/17 09:37:35;;;;;;;31.50;18.70;;;;;;;5.61;82.83;99097.16;222044;1272;23793;-75
2023/02/17 09:42:39;;;;;;;30.00;17.70;;;;;;;5.58;82.85;99098.98;222094;1270;139052;-76
2023/02/17 09:47:58;;;;;;;24.40;15.90;;;;;;;5.66;83.30;99098.83;221990;1277;138689;-76
2023/02/17 09:53:16;;;;;;;29.50;18.30;;;;;;;5.74;83.29;99106.64;221896;1264;138715;-76
2023/02/17 09:58:40;;;;;;;26.10;16.80;;;;;;;5.78;83.40;99105.54;221865;1267;138432;-75
2023/02/17 10:03:50;;;;;;;26.40;18.40;;;;;;;5.79;83.06;99104.33;221694;1276;138438;-76
2023/02/17 10:08:59;;;;;;;31.10;18.10;;;;;;;5.82;83.01;99101.57;221730;1275;139790;-76
2023/02/17 10:14:08;;;;;;;28.40;18.80;;;;;;;5.85;82.83;99097.30;221877;1278;24228;-75
2023/02/17 10:19:24;;;;;;;29.60;19.50;;;;;;;5.83;82.99;99094.83;221942;1276;138765;-76
2023/02/17 10:24:26;;;;;;;29.20;18.40;;;;;;;5.82;82.90;99086.95;222000;1263;138528;-77
2023/02/17 10:30:06;;;;;;;27.50;17.60;;;;;;;5.83;82.77;99081.77;222046;1273;138604;-76
2023/02/17 10:35:17;;;;;;;29.00;17.80;;;;;;;5.88;83.07;99066.91;221821;1262;138474;-76
2023/02/17 10:40:24;;;;;;;28.50;18.60;;;;;;;6.00;83.06;99059.14;222383;1266;138452;-75
2023/02/17 10:45:39;;;;;;;26.20;17.60;;;;;;;6.13;83.00;99046.33;221750;1270;138439;-76
2023/02/17 10:50:43;;;;;;;26.80;17.30;;;;;;;6.32;82.50;99042.79;221438;1272;139150;-75
2023/02/17 10:56:20;;;;;;;23.90;16.60;;;;;;;6.40;82.33;99048.94;222016;1272;23243;-75
2023/02/17 11:01:48;;;;;;;23.80;16.80;;;;;;;6.49;82.04;99030.48;215960;1310;544799;-77
2023/02/17 11:06:54;;;;;;;24.30;16.90;;;;;;;6.59;81.81;99010.84;220223;1281;137951;-76
2023/02/17 11:12:10;;;;;;;26.30;17.40;;;;;;;6.72;82.07;98992.80;220488;1274;314067;-77
2023/02/17 11:17:22;;;;;;;26.20;17.00;;;;;;;6.89;81.16;98979.30;221063;1270;138293;-76
2023/02/17 11:22:39;;;;;;;26.40;17.00;;;;;;;6.99;81.23;98978.77;221057;1265;138422;-77
2023/02/17 11:27:49;;;;;;;27.10;17.60;;;;;;;6.95;80.67;98973.25;220716;1276;137794;-77
2023/02/17 11:32:54;;;;;;;27.10;17.60;;;;;;;6.83;80.45;98958.66;220723;1267;138485;-76
2023/02/17 11:38:14;;;;;;;24.40;16.30;;;;;;;6.77;81.03;98949.85;221024;1265;23108;-76
2023/02/17 11:43:20;;;;;;;25.00;17.60;;;;;;;6.73;81.37;98945.08;220490;1281;138000;-77
2023/02/17 11:48:41;;;;;;;26.50;17.40;;;;;;;6.73;81.33;98944.06;220537;1278;137531;-76
2023/02/17 11:53:59;;;;;;;26.10;17.40;;;;;;;6.66;80.85;98931.98;220708;1279;137893;-75
2023/02/17 11:59:10;;;;;;;24.60;16.10;;;;;;;6.60;81.06;98924.23;222180;1268;138004;-75
2023/02/17 12:04:30;;;;;;;27.80;17.10;;;;;;;6.56;81.65;98919.98;221842;1279;138346;-75
2023/02/17 12:10:42;;;;;;;23.90;15.70;;;;;;;6.52;81.63;98914.98;221805;1268;137970;-75
2023/02/17 12:16:06;;;;;;;25.90;17.70;;;;;;;6.45;81.45;98911.31;221653;1256;137964;-75
2023/02/17 12:21:38;;;;;;;24.80;16.40;;;;;;;6.43;82.23;98913.27;221038;1268;137921;-76
2023/02/17 12:27:07;;;;;;;23.20;15.60;;;;;;;6.45;81.99;98907.27;221310;1278;137947;-76
2023/02/17 12:33:16;;;;;;;24.60;16.40;;;;;;;6.45;81.98;98902.59;220642;1280;22634;-76
2023/02/17 12:38:26;;;;;;;24.40;16.50;;;;;;;6.42;82.23;98889.35;220538;1281;22565;-76
2023/02/17 12:43:46;;;;;;;24.50;16.50;;;;;;;6.42;82.33;98880.81;220871;1284;138689;-76
2023/02/17 12:48:58;;;;;;;24.70;16.80;;;;;;;6.46;82.43;98871.52;220718;1283;138368;-76
2023/02/17 12:54:31;;;;;;;25.90;16.50;;;;;;;6.51;82.57;98865.31;221193;1270;138492;-76
2023/02/17 12:59:45;;;;;;;25.50;17.00;;;;;;;6.61;82.86;98854.08;220882;1277;137978;-76
2023/02/17 13:05:03;;;;;;;24.80;16.50;;;;;;;6.72;82.94;98848.95;221967;1272;137936;-75
2023/02/17 13:10:16;;;;;;;24.30;16.60;;;;;;;6.86;82.74;98838.20;221727;1271;137886;-76
2023/02/17 13:15:34;;;;;;;26.60;16.70;;;;;;;6.99;82.58;98819.60;221648;1269;137893;-74
2023/02/17 13:20:38;;;;;;;25.10;18.00;;;;;;;7.11;82.85;98811.15;221906;1268;22553;-74
2023/02/17 13:25:40;;;;;;;24.80;17.10;;;;;;;7.24;82.49;98812.59;221690;1255;137675;-76
2023/02/17 13:30:44;;;;;;;25.40;16.80;;;;;;;7.31;82.32;98806.52;221978;1267;138806;-76
2023/02/17 13:35:48;;;;;;;22.00;15.60;;;;;;;7.32;82.14;98797.76;221396;1272;138543;-76
2023/02/17 13:40:51;;;;;;;22.80;15.00;;;;;;;7.32;81.60;98784.33;221738;1268;138508;-75
2023/02/17 13:46:01;;;;;;;20.50;13.60;;;;;;;7.34;81.71;98777.91;221812;1279;138533;-75
2023/02/17 13:51:15;;;;;;;21.40;13.30;;;;;;;7.34;81.89;98777.79;221694;1276;138060;-76
2023/02/17 13:56:35;;;;;;;21.20;13.50;;;;;;;7.35;81.80;98772.30;221718;1262;25379;-75
2023/02/17 14:01:41;;;;;;;21.10;14.50;;;;;;;7.35;81.65;98775.59;221995;1265;137698;-75
2023/02/17 14:06:44;;;;;;;21.40;13.90;;;;;;;7.33;81.79;98775.30;222120;1272;138521;-76
2023/02/17 14:11:49;;;;;;;20.90;14.10;;;;;;;7.31;81.78;98765.36;221537;1273;139315;-76
2023/02/17 14:17:01;;;;;;;21.90;15.10;;;;;;;7.28;81.83;98755.69;221573;1268;138588;-77
2023/02/17 14:22:05;;;;;;;22.00;16.00;;;;;;;7.26;81.99;98751.38;221584;1274;138060;-74
2023/02/17 14:27:12;;;;;;;23.60;15.20;;;;;;;7.24;82.23;98754.42;221559;1272;138575;-75
2023/02/17 14:32:37;;;;;;;21.50;15.60;;;;;;;7.19;82.38;98736.72;222154;1256;22581;-76
2023/02/17 14:37:41;;;;;;;22.70;15.10;;;;;;;7.14;82.53;98711.02;221784;1268;137640;-75
2023/02/17 14:42:44;;;;;;;25.30;17.30;;;;;;;7.11;82.68;98708.09;221655;1267;138793;-74
2023/02/17 14:47:47;;;;;;;23.40;16.30;;;;;;;7.04;82.85;98706.44;222016;1276;139069;-74
2023/02/17 14:52:54;;;;;;;23.30;17.20;;;;;;;6.98;83.11;98698.40;222002;1270;138784;-75
2023/02/17 14:57:56;;;;;;;26.70;17.30;;;;;;;6.90;83.27;98697.67;221492;1271;138207;-74
2023/02/17 15:02:58;;;;;;;25.10;17.20;;;;;;;6.84;83.67;98695.58;221412;1278;139244;-75
2023/02/17 15:08:01;;;;;;;24.20;16.70;;;;;;;6.79;83.59;98679.88;221446;1276;22541;-75
2023/02/17 15:13:04;;;;;;;23.30;14.90;;;;;;;6.78;83.61;98665.08;221922;1276;22539;-75
2023/02/17 15:18:06;;;;;;;21.00;13.50;;;;;;;6.78;84.03;98654.76;221665;1278;22561;-75
2023/02/17 15:23:15;;;;;;;25.10;16.40;;;;;;;6.77;84.07;98652.55;221496;1278;22540;-75
2023/02/17 15:28:19;;;;;;;21.80;14.50;;;;;;;6.78;84.04;98635.43;221130;1279;24291;-76
2023/02/17 15:33:25;;;;;;;20.50;13.90;;;;;;;6.82;83.86;98627.55;221106;1279;22617;-75
2023/02/17 15:38:27;;;;;;;22.70;14.50;;;;;;;6.85;83.79;98620.58;221376;1278;22596;-76
2023/02/17 15:43:34;;;;;;;20.60;13.70;;;;;;;6.86;83.98;98607.14;221270;1279;22883;-74
2023/02/17 15:48:39;;;;;;;20.10;13.60;;;;;;;6.87;83.87;98598.87;221522;1278;25329;-75
2023/02/17 15:53:41;;;;;;;20.10;14.50;;;;;;;6.89;83.93;98589.77;221246;1279;26011;-75
2023/02/17 15:58:46;;;;;;;18.90;14.10;;;;;;;6.91;84.93;98579.80;221243;1257;22540;-74
2023/02/17 16:03:48;;;;;;;19.40;14.20;;;;;;;6.93;84.99;98586.94;221245;1279;25379;-75
2023/02/17 16:08:53;;;;;;;21.10;13.50;;;;;;;6.92;84.47;98577.72;221193;1277;24708;-76
2023/02/17 16:13:56;;;;;;;20.20;13.80;;;;;;;6.91;84.39;98579.03;221276;1278;22539;-75
2023/02/17 16:18:59;;;;;;;20.40;14.10;;;;;;;6.92;84.41;98571.45;221448;1278;24260;-75
2023/02/17 16:24:02;;;;;;;21.10;15.80;;;;;;;6.94;84.28;98557.98;221321;1265;24018;-75
2023/02/17 16:29:19;;;;;;;23.40;15.50;;;;;;;6.96;84.72;98542.42;221540;1277;24249;-74
2023/02/17 16:34:22;;;;;;;24.30;14.90;;;;;;;7.00;84.32;98529.02;221715;1275;22541;-75
2023/02/17 16:39:25;;;;;;;23.40;15.80;;;;;;;7.03;84.31;98528.09;221538;1277;25246;-74
2023/02/17 16:44:27;;;;;;;21.00;13.90;;;;;;;7.07;84.40;98522.77;221527;1277;22847;-75
2023/02/17 16:49:32;;;;;;;22.50;15.30;;;;;;;7.10;84.33;98515.63;221789;1276;23015;-76
2023/02/17 16:54:34;;;;;;;19.50;13.10;;;;;;;7.11;84.41;98510.48;221372;1276;22722;-75
2023/02/17 16:59:37;;;;;;;21.00;15.10;;;;;;;7.14;84.74;98495.77;221684;1276;23389;-74
2023/02/17 17:04:39;;;;;;;21.50;14.60;;;;;;;7.17;84.59;98488.19;221539;1277;22534;-76
2023/02/17 17:09:41;;;;;;;21.10;13.30;;;;;;;7.22;84.82;98487.80;221542;1277;22584;-74
2023/02/17 17:14:50;;;;;;;21.70;14.60;;;;;;;7.29;85.00;98482.30;221702;1276;22536;-73
2023/02/17 17:19:52;;;;;;;18.00;12.90;;;;;;;7.34;84.57;98475.44;221613;1277;25390;-75
2023/02/17 17:24:54;;;;;;;19.60;13.90;;;;;;;7.39;84.78;98477.13;221717;1276;22598;-74
2023/02/17 17:29:56;;;;;;;21.30;14.10;;;;;;;7.42;85.34;98492.29;221685;1276;22536;-74
2023/02/17 17:34:58;;;;;;;19.60;12.30;;;;;;;7.44;85.21;98490.89;221659;1277;22545;-75
2023/02/17 17:40:00;;;;;;;20.00;14.00;;;;;;;7.46;85.07;98489.23;221705;1277;22648;-77
2023/02/17 17:45:03;;;;;;;20.00;13.40;;;;;;;7.46;84.97;98504.19;221623;1272;25409;-75
2023/02/17 17:50:07;;;;;;;23.90;14.40;;;;;;;7.46;85.08;98501.92;221709;1275;22852;-75
2023/02/17 17:55:13;;;;;;;23.40;15.70;;;;;;;7.40;85.76;98487.09;221551;1277;23925;-75
2023/02/17 18:00:16;;;;;;;23.30;15.10;;;;;;;7.30;85.68;98480.05;221719;1276;25385;-76
2023/02/17 18:05:21;;;;;;;22.50;16.20;;;;;;;7.20;86.19;98474.58;221634;1277;22543;-76
2023/02/17 18:10:24;;;;;;;23.00;14.50;;;;;;;7.15;86.57;98475.36;221758;1276;24048;-76
2023/02/17 18:15:26;;;;;;;20.00;14.50;;;;;;;7.11;86.76;98475.80;221817;1274;25340;-76
2023/02/17 18:20:28;;;;;;;21.00;15.10;;;;;;;7.12;86.89;98482.15;221679;1276;25293;-75
2023/02/17 18:25:31;;;;;;;19.40;14.70;;;;;;;7.16;87.44;98479.39;221776;1275;22652;-76
2023/02/17 18:30:33;;;;;;;20.50;14.10;;;;;;;7.22;87.28;98482.20;221825;1276;22534;-76
2023/02/17 18:35:37;;;;;;;19.70;14.00;;;;;;;7.32;87.74;98485.48;221446;1277;22555;-75
2023/02/17 18:40:40;;;;;;;15.80;11.30;;;;;;;7.42;87.40;98482.47;221679;1277;26506;-76
2023/02/17 18:45:47;;;;;;;17.80;12.10;;;;;;;7.54;87.86;98486.23;221703;1276;24394;-75
2023/02/17 18:50:50;;;;;;;17.00;12.20;;;;;;;7.63;87.46;98491.98;221590;1271;25356;-75
2023/02/17 18:55:52;;;;;;;13.80;10.10;;;;;;;7.73;87.20;98485.98;221632;1276;22544;-75
2023/02/17 19:00:56;;;;;;;13.70;10.40;;;;;;;7.85;87.28;98485.25;221675;1276;22547;-76
2023/02/17 19:06:10;;;;;;;13.80;9.20;;;;;;;7.95;87.17;98491.52;221771;1273;22641;-76
2023/02/17 19:11:15;;;;;;;13.20;9.40;;;;;;;8.04;86.78;98478.33;221744;1277;24250;-75
2023/02/17 19:16:24;;;;;;;12.90;8.30;;;;;;;8.13;86.72;98495.54;221779;1271;22547;-75
2023/02/17 19:21:27;;;;;;;11.70;8.30;;;;;;;8.22;86.68;98500.48;221701;1276;25291;-76
2023/02/17 19:26:29;;;;;;;12.40;8.80;;;;;;;8.27;86.57;98497.89;221713;1276;25284;-75
2023/02/17 19:31:31;;;;;;;10.40;7.90;;;;;;;8.33;86.54;98498.63;221654;1276;25246;-76
2023/02/17 19:36:37;;;;;;;11.40;8.10;;;;;;;8.38;86.46;98498.52;221773;1273;22540;-75
2023/02/17 19:41:39;;;;;;;9.60;7.30;;;;;;;8.45;86.18;98496.80;221694;1276;22585;-75
2023/02/17 19:46:42;;;;;;;10.90;7.60;;;;;;;8.52;86.03;98491.66;221697;1273;22557;-77
2023/02/17 19:51:44;;;;;;;10.60;7.10;;;;;;;8.57;85.86;98484.66;221490;1277;24448;-75
2023/02/17 19:56:48;;;;;;;8.80;7.30;;;;;;;8.64;85.80;98476.66;221716;1277;22665;-76
2023/02/17 20:01:50;;;;;;;9.20;7.40;;;;;;;8.69;86.31;98478.16;221623;1276;22532;-76
2023/02/17 20:06:53;;;;;;;9.80;7.40;;;;;;;8.75;85.75;98476.91;221565;1277;22890;-75
2023/02/17 20:11:55;;;;;;;9.50;7.10;;;;;;;8.81;85.29;98482.97;221758;1276;22625;-76
2023/02/17 20:16:59;;;;;;;11.90;7.50;;;;;;;8.88;85.68;98482.20;221575;1276;22540;-76
2023/02/17 20:22:02;;;;;;;10.00;6.90;;;;;;;8.94;85.48;98478.14;221682;1274;22593;-76
2023/02/17 20:27:05;;;;;;;8.40;6.80;;;;;;;8.98;85.22;98472.71;221715;1273;22553;-75
2023/02/17 20:32:07;;;;;;;8.70;6.80;;;;;;;9.01;85.27;98471.10;221556;1276;24392;-75
2023/02/17 20:37:10;;;;;;;8.60;6.80;;;;;;;9.05;85.10;98476.08;221462;1276;25335;-76
2023/02/17 20:42:12;;;;;;;7.80;6.40;;;;;;;9.09;85.00;98463.86;221396;1277;22526;-76
2023/02/17 20:47:14;;;;;;;7.70;6.00;;;;;;;9.10;85.35;98454.36;221389;1276;22620;-75
2023/02/17 20:52:17;;;;;;;8.50;6.20;;;;;;;9.16;85.27;98457.39;221639;1273;23771;-76
2023/02/17 20:57:19;;;;;;;8.20;6.00;;;;;;;9.19;84.85;98448.59;221729;1276;25353;-74
2023/02/17 21:02:21;;;;;;;6.60;5.60;;;;;;;9.22;85.13;98448.81;221742;1273;22712;-76
2023/02/17 21:07:24;;;;;;;7.70;6.00;;;;;;;9.26;84.91;98450.88;221647;1273;22651;-76
2023/02/17 21:12:26;;;;;;;6.50;5.20;;;;;;;9.27;84.85;98450.00;221701;1270;25486;-75
2023/02/17 21:17:28;;;;;;;7.30;6.00;;;;;;;9.28;84.37;98440.89;221742;1273;22613;-76
2023/02/17 21:22:30;;;;;;;7.80;5.70;;;;;;;9.30;84.82;98446.54;221601;1273;22547;-75
2023/02/17 21:27:33;;;;;;;6.80;5.40;;;;;;;9.31;84.39;98455.68;221511;1277;22558;-76
2023/02/17 21:32:37;;;;;;;5.70;4.40;;;;;;;9.34;84.48;98460.09;221641;1275;22692;-75
2023/02/17 21:37:39;;;;;;;6.60;5.30;;;;;;;9.35;84.24;98445.86;221511;1276;25304;-75
2023/02/17 21:48:03;;;;;;;6.20;5.30;;;;;;;9.37;84.37;98450.30;221639;1277;25266;-75
2023/02/17 21:53:05;;;;;;;5.30;4.80;;;;;;;9.39;84.64;98455.38;221681;1274;22536;-76
2023/02/17 21:58:07;;;;;;;6.10;5.20;;;;;;;9.41;84.37;98463.16;221584;1276;22535;-74
2023/02/17 22:03:10;;;;;;;6.60;4.90;;;;;;;9.45;84.34;98472.77;221659;1276;24769;-75
2023/02/17 22:08:15;;;;;;;6.20;4.70;;;;;;;9.48;84.62;98499.59;221682;1277;22586;-76
2023/02/17 22:13:23;;;;;;;6.20;4.60;;;;;;;9.52;84.51;98502.58;221565;1276;22588;-76
2023/02/17 22:18:25;;;;;;;5.50;4.80;;;;;;;9.59;84.42;98512.05;221650;1267;22597;-76
2023/02/17 22:23:27;;;;;;;6.50;5.00;;;;;;;9.62;84.03;98508.45;221621;1272;23252;-76
2023/02/17 22:28:29;;;;;;;6.90;5.20;;;;;;;9.63;84.09;98510.08;221621;1276;22601;-77
2023/02/17 22:33:32;;;;;;;7.90;5.70;;;;;;;9.61;84.50;98509.09;221625;1276;22543;-75
2023/02/17 22:38:34;;;;;;;7.50;5.80;;;;;;;9.57;84.18;98508.55;221647;1276;22647;-74
2023/02/17 22:43:39;;;;;;;7.30;5.70;;;;;;;9.51;84.12;98512.71;221677;1275;22859;-75
2023/02/17 22:48:50;;;;;;;7.60;6.10;;;;;;;9.47;84.57;98514.54;221730;1277;23219;-77
2023/02/17 22:53:53;;;;;;;6.70;5.60;;;;;;;9.39;84.30;98520.73;221679;1276;26526;-76
2023/02/17 22:58:59;;;;;;;7.40;5.90;;;;;;;9.35;84.58;98508.93;221659;1275;23295;-76
2023/02/17 23:04:05;;;;;;;8.60;6.20;;;;;;;9.28;84.76;98501.16;221780;1276;22537;-76
2023/02/17 23:09:12;;;;;;;9.30;6.60;;;;;;;9.21;84.91;98502.56;221777;1276;25294;-76
2023/02/17 23:14:17;;;;;;;9.00;6.60;;;;;;;9.17;85.10;98504.33;221307;1274;230070;-76
2023/02/17 23:19:21;;;;;;;8.90;6.30;;;;;;;9.14;85.04;98489.85;221767;1271;22656;-75
2023/02/17 23:24:25;;;;;;;9.00;6.50;;;;;;;9.11;85.24;98487.62;221808;1276;22495;-76
2023/02/17 23:29:29;;;;;;;8.70;6.20;;;;;;;9.10;85.46;98487.27;221461;1276;25280;-76
2023/02/17 23:34:32;;;;;;;6.20;4.80;;;;;;;9.07;85.47;98485.09;221653;1274;24266;-76
2023/02/17 23:39:37;;;;;;;7.00;5.20;;;;;;;9.08;85.01;98484.50;221599;1275;22548;-76
2023/02/17 23:44:39;;;;;;;6.40;5.00;;;;;;;9.08;85.59;98478.89;221548;1276;22577;-75